Adrian, ND

1:25 AM CDT on July 24, 2014 (GMT -0500)
Jamestown Municipal (KJMS) Elev 1499 ft | 46.93 °N, 98.67 °W | Change Station

Current weather conditions updated 29 minutes ago

Clear
Clear
64 °F
Feels Like 64 °F
N
10
Wind Variable Wind from ESE

Today is forecast to be Warmer than yesterday.

Today
High -- | Low -- °F
--% Chance of Precip.
Yesterday
High -- | Low -- °F
Precip. -- in
6:05 AM 9:15 PM
Waning Crescent, 7% visible
Pressure 30.14 in
Visibility 10.0 miles
Clouds Clear
Dew Point 59 °F
Humidity 84%
Rainfall 0.00 in
Snow Depth Not available.
UV 0 out of 12
Pollen 7.00 out of 12
Air Quality Not available.
Flu Activity Not available.
METAR KJMS 240556Z AUTO 12009KT 10SM CLR 18/15 A3015 RMK AO2 SLP205 T01780150 10250 20178 402610150 58003

More Conditions Fewer Conditions

Pressure 30.14 in
Visibility 10.0 miles
Clouds Clear
Dew Point 59 °F
Humidity 84%
Rainfall 0.00 in
Snow Depth Not available.
UV 0 out of 12
Pollen 7.00 out of 12
Air Quality Not available.
Flu Activity Not available.
METAR KJMS 240556Z AUTO 12009KT 10SM CLR 18/15 A3015 RMK AO2 SLP205 T01780150 10250 20178 402610150 58003

More Conditions Fewer Conditions

10-Day Weather Forecast

Almanac

Astronomy

Jul. 24, 2014 Rise Set
Actual Time 6:05 AM CDT 9:15 PM CDT
Civil Twilight 5:28 AM CDT 9:51 PM CDT
Nautical Twilight 4:41 AM CDT 10:38 PM CDT
Astronomical Twilight 3:42 AM CDT 11:36 PM CDT
Moon 4:16 AM CDT 7:29 PM CDT
Length of Visible Light 16h 22m
Length of Day
15h 10m
Tomorrow will be 2m 16s shorter.
Waning Crescent, 7% of the Moon is Illuminated
Today
Waning Crescent
Jul 26
New
Aug 3
First Quarter
Aug 10
Full
Aug 17
Last Quarter

Today's Extremes

State Highs State Lows

Community

WunderPhotos

Upload Photos

1,736,942 photos uploaded!

Nearby

Snow Depth

Station Depth Elevation
No new snow has been reported.

Earthquake Activity

City Distance Mag. Time & Date
No recent earthquake activity has been reported nearby.
Minimum magnitude displayed is 2.5.

Coastal Water Temperatures

Place Temperature
No Stations Reporting

Nearby Weather Stations

Station Location Temp. Dew Point Humidity Wind Precip. Elev Updated Type
Leapaldt Addition, Jamestown, ND 64.2 °F 60 °F 87% SE  at  9.4 mph - / hr 1486 ft 1:21 AM CDT Normal
Eldridge-Lippert, Jamestown, ND 60.3 °F 58 °F 91% SE  at  0.0 mph 0.00 in / hr 1649 ft 1:24 AM CDT Rapid Fire
Edgeley, Edgeley, ND 64.4 °F 60 °F 86% SSE  at  4.0 mph 0.00 in / hr 1585 ft 1:19 AM CDT Rapid Fire
Edgeley Main, Edgeley, ND 63.0 °F 59 °F 87% ESE  at  3.2 mph - / hr 1562 ft 1:16 AM CDT Normal

Show More Stations Show Fewer Stations